« Back
NWS Peachtree City, Ga » Text Product » MCN Terminal Aerodrome Forecast


Printer-friendly Version
Current Version              Previous Versions:   1  2  3  4  5  6  7  8  9  

Terminal Aerodrome Forecast

559
FTUS42 KFFC 281720
TAFMCN
TAF
KMCN 281720Z 2818/2918 07010KT P6SM SCT040
     FM290100 07004KT P6SM SCT250
     FM291200 05007KT P6SM FEW015 SCT250
     FM291500 07010KT P6SM OVC050=



USA.gov is the U.S. government's official web portal to all federal, state and local government web resources and services.